createdAt,value
2023-04-11T00:01:32.375Z,11.40
2023-04-11T00:04:02.041Z,11.30
2023-04-11T00:06:35.363Z,11.40
2023-04-11T00:09:04.705Z,11.40
2023-04-11T00:11:33.643Z,11.40
2023-04-11T00:14:02.708Z,11.30
2023-04-11T00:16:33.982Z,11.30
2023-04-11T00:19:03.318Z,11.30
2023-04-11T00:21:40.110Z,11.30
2023-04-11T00:24:10.031Z,11.30
2023-04-11T00:26:39.367Z,11.20
2023-04-11T00:29:09.421Z,11.10
2023-04-11T00:31:38.585Z,10.90
2023-04-11T00:34:07.553Z,11.00
2023-04-11T00:36:37.811Z,10.90
2023-04-11T00:39:07.179Z,10.80
2023-04-11T00:41:36.832Z,10.80
2023-04-11T00:44:06.458Z,10.60
2023-04-11T00:46:36.685Z,10.60
2023-04-11T00:49:05.832Z,10.70
2023-04-11T00:51:35.507Z,10.60
2023-04-11T00:54:09.655Z,10.60
2023-04-11T00:56:38.627Z,10.60
2023-04-11T00:59:07.856Z,10.60
2023-04-11T01:01:38.511Z,10.60
2023-04-11T01:04:08.007Z,10.60
2023-04-11T01:06:37.481Z,10.60
2023-04-11T01:09:07.849Z,10.70
2023-04-11T01:11:37.495Z,10.70
2023-04-11T01:14:08.223Z,10.60
2023-04-11T01:16:39.746Z,10.60
2023-04-11T01:19:09.260Z,10.60
2023-04-11T01:21:38.792Z,10.50
2023-04-11T01:24:11.801Z,10.50
2023-04-11T01:26:40.669Z,10.50
2023-04-11T01:29:09.941Z,10.50
2023-04-11T01:31:38.989Z,10.60
2023-04-11T01:34:08.513Z,10.50
2023-04-11T01:36:37.440Z,10.50
2023-04-11T01:39:07.211Z,10.60
2023-04-11T01:41:37.961Z,10.50
2023-04-11T01:44:07.270Z,10.50
2023-04-11T01:46:37.222Z,10.50
2023-04-11T01:49:07.924Z,10.50
2023-04-11T01:51:37.461Z,10.50
2023-04-11T01:54:06.952Z,10.50
2023-04-11T01:56:37.211Z,10.50
2023-04-11T01:59:06.394Z,10.40
2023-04-11T02:01:36.532Z,10.40
2023-04-11T02:04:05.744Z,10.40
2023-04-11T02:06:35.165Z,10.30
2023-04-11T02:09:04.418Z,10.30
2023-04-11T02:11:33.450Z,10.30
2023-04-11T02:14:03.899Z,10.30
2023-04-11T02:16:33.849Z,10.40
2023-04-11T02:19:03.847Z,10.40
2023-04-11T02:21:33.145Z,10.50
2023-04-11T02:24:02.275Z,10.40
2023-04-11T02:26:31.317Z,10.50
2023-04-11T02:29:00.203Z,10.50
2023-04-11T02:31:31.252Z,10.50
2023-04-11T02:34:00.279Z,10.40
2023-04-11T02:36:30.035Z,10.30
2023-04-11T02:38:59.955Z,10.30
2023-04-11T02:41:31.924Z,10.30
2023-04-11T02:44:03.429Z,10.20
2023-04-11T02:46:36.981Z,10.10
2023-04-11T02:49:08.776Z,10.10
2023-04-11T02:51:38.290Z,10.10
2023-04-11T02:54:10.429Z,10.10
2023-04-11T02:56:43.624Z,10.00
2023-04-11T02:59:12.419Z,10.00
2023-04-11T03:01:44.787Z,9.90
2023-04-11T03:04:13.919Z,9.90
2023-04-11T03:07:06.267Z,9.90
2023-04-11T03:09:35.696Z,9.90
2023-04-11T03:12:04.657Z,9.90
2023-04-11T03:14:33.977Z,9.80
2023-04-11T03:17:04.228Z,9.90
2023-04-11T03:19:35.575Z,9.80
2023-04-11T03:22:06.671Z,9.80
2023-04-11T03:24:36.281Z,9.90
2023-04-11T03:27:05.501Z,10.00
2023-04-11T03:29:35.035Z,10.00
2023-04-11T03:32:13.142Z,10.10
2023-04-11T03:34:42.512Z,10.20
2023-04-11T03:37:15.254Z,10.20
2023-04-11T03:39:44.942Z,10.20
2023-04-11T03:42:14.742Z,10.20
2023-04-11T03:44:44.237Z,10.00
2023-04-11T03:47:15.781Z,10.10
2023-04-11T03:49:46.372Z,10.10
2023-04-11T03:52:18.349Z,10.10
2023-04-11T03:54:49.924Z,10.00
2023-04-11T03:57:20.134Z,10.00
2023-04-11T03:59:49.075Z,9.90
2023-04-11T04:02:19.566Z,10.00
2023-04-11T04:04:58.443Z,9.90
2023-04-11T04:07:32.098Z,9.70
2023-04-11T04:10:17.399Z,9.60
2023-04-11T04:12:50.782Z,9.60
2023-04-11T04:15:22.322Z,9.60
2023-04-11T04:17:53.931Z,9.60
2023-04-11T04:20:38.402Z,9.50
2023-04-11T04:23:07.874Z,9.50
2023-04-11T04:26:06.878Z,9.60
2023-04-11T04:28:37.982Z,9.60
2023-04-11T04:31:08.625Z,9.70
2023-04-11T04:33:46.584Z,9.80
2023-04-11T04:36:25.066Z,9.90
2023-04-11T04:38:56.429Z,10.00
2023-04-11T04:41:25.572Z,10.00
2023-04-11T04:44:01.154Z,10.00
2023-04-11T04:46:38.790Z,10.00
2023-04-11T04:49:09.994Z,10.00
2023-04-11T04:51:40.361Z,10.00
2023-04-11T04:54:09.706Z,10.00
2023-04-11T04:56:38.866Z,10.00
2023-04-11T04:59:08.656Z,9.90
2023-04-11T05:01:40.053Z,9.90
2023-04-11T05:04:12.864Z,9.90
2023-04-11T05:06:49.105Z,9.80
2023-04-11T05:09:19.630Z,9.80
2023-04-11T05:11:50.540Z,9.70
2023-04-11T05:14:20.150Z,9.70
2023-04-11T05:16:49.095Z,9.60
2023-04-11T05:19:19.229Z,9.70
2023-04-11T05:21:51.535Z,9.70
2023-04-11T05:24:20.529Z,9.70
2023-04-11T05:26:50.441Z,9.70
2023-04-11T05:29:21.954Z,9.70
2023-04-11T05:31:51.511Z,9.70
2023-04-11T05:34:22.090Z,9.70
2023-04-11T05:36:52.007Z,9.80
2023-04-11T05:39:20.900Z,9.90
2023-04-11T05:41:51.651Z,9.90
2023-04-11T05:44:20.851Z,9.90
2023-04-11T05:46:49.744Z,9.90
2023-04-11T05:49:19.377Z,9.90
2023-04-11T05:51:49.805Z,9.80
2023-04-11T05:54:33.161Z,9.80
2023-04-11T05:57:03.331Z,9.90
2023-04-11T05:59:34.764Z,10.00
2023-04-11T06:02:04.253Z,10.00
2023-04-11T06:04:35.005Z,10.10
2023-04-11T06:07:08.527Z,10.10
2023-04-11T06:09:37.595Z,10.10
2023-04-11T06:12:06.766Z,10.10
2023-04-11T06:14:37.071Z,10.00
2023-04-11T06:17:07.566Z,9.90
2023-04-11T06:19:37.424Z,10.00
2023-04-11T06:22:08.133Z,10.00
2023-04-11T06:24:38.596Z,10.10
2023-04-11T06:27:10.168Z,10.10
2023-04-11T06:29:39.429Z,10.20
2023-04-11T06:32:08.916Z,10.20
2023-04-11T06:34:37.896Z,10.00
2023-04-11T06:37:09.336Z,10.00
2023-04-11T06:39:38.329Z,10.10
2023-04-11T06:42:07.294Z,10.20
2023-04-11T06:44:36.451Z,10.20
2023-04-11T06:47:05.640Z,10.20
2023-04-11T06:49:35.201Z,10.20
2023-04-11T06:52:04.657Z,10.10
2023-04-11T06:54:34.920Z,10.20
2023-04-11T06:57:04.464Z,10.30
2023-04-11T06:59:34.904Z,10.30
2023-04-11T07:02:04.046Z,10.40
2023-04-11T07:04:34.112Z,10.70
2023-04-11T07:07:03.773Z,10.70
2023-04-11T07:09:34.834Z,10.80
2023-04-11T07:12:05.459Z,10.70
2023-04-11T07:14:35.310Z,10.70
2023-04-11T07:17:04.156Z,10.70
2023-04-11T07:19:33.114Z,10.80
2023-04-11T07:22:03.220Z,11.00
2023-04-11T07:24:32.233Z,10.90
2023-04-11T07:27:02.828Z,11.00
2023-04-11T07:29:31.926Z,11.20
2023-04-11T07:32:01.017Z,11.10
2023-04-11T07:34:30.029Z,11.20
2023-04-11T07:37:01.045Z,11.10
2023-04-11T07:39:29.988Z,11.20
2023-04-11T07:41:58.822Z,11.20
2023-04-11T07:44:29.019Z,11.40
2023-04-11T07:46:59.364Z,11.50
2023-04-11T07:49:28.419Z,11.70
2023-04-11T07:51:57.331Z,11.70
2023-04-11T07:54:28.586Z,11.80
2023-04-11T07:56:58.166Z,11.80
2023-04-11T07:59:28.460Z,11.90
2023-04-11T08:02:02.204Z,12.00
2023-04-11T08:04:33.927Z,12.00
2023-04-11T08:07:03.033Z,12.10
2023-04-11T08:09:33.099Z,12.30
2023-04-11T08:12:02.480Z,12.50
2023-04-11T08:14:32.864Z,12.50
2023-04-11T08:17:02.657Z,12.50
2023-04-11T08:19:32.545Z,12.40
2023-04-11T08:22:01.403Z,12.60
2023-04-11T08:24:32.660Z,12.60
2023-04-11T08:27:01.704Z,12.70
2023-04-11T08:29:34.687Z,12.70
2023-04-11T08:32:04.048Z,12.70
2023-04-11T08:34:33.784Z,12.90
2023-04-11T08:37:04.133Z,12.80
2023-04-11T08:39:33.384Z,12.80
2023-04-11T08:42:02.533Z,12.90
2023-04-11T08:44:34.346Z,12.80
2023-04-11T08:47:03.356Z,12.80
2023-04-11T08:49:32.310Z,12.70
2023-04-11T08:52:02.847Z,12.70
2023-04-11T08:54:31.700Z,12.70
2023-04-11T08:57:00.973Z,12.70
2023-04-11T08:59:29.980Z,12.70
2023-04-11T09:02:09.449Z,12.80
2023-04-11T09:04:41.859Z,12.80
2023-04-11T09:07:11.477Z,12.70
2023-04-11T09:09:40.533Z,12.80
2023-04-11T09:12:10.053Z,12.80
2023-04-11T09:14:38.845Z,13.00
2023-04-11T09:17:14.489Z,13.20
2023-04-11T09:19:44.623Z,13.30
2023-04-11T09:22:15.734Z,13.40
2023-04-11T09:24:44.739Z,13.60
2023-04-11T09:27:16.763Z,13.70
2023-04-11T09:29:46.975Z,13.60
2023-04-11T09:32:32.487Z,13.60
2023-04-11T09:35:12.024Z,13.90
2023-04-11T09:37:46.902Z,14.00
2023-04-11T09:40:17.217Z,14.20
2023-04-11T09:42:47.973Z,14.20
2023-04-11T09:45:21.624Z,14.10
2023-04-11T09:47:54.378Z,14.00
2023-04-11T09:50:23.972Z,14.20
2023-04-11T09:52:54.999Z,14.20
2023-04-11T09:55:27.113Z,14.40
2023-04-11T09:57:56.356Z,14.50
2023-04-11T10:00:29.532Z,14.70
2023-04-11T10:03:00.810Z,15.00
2023-04-11T10:05:31.911Z,14.90
2023-04-11T10:08:08.082Z,15.10
2023-04-11T10:10:38.050Z,15.20
2023-04-11T10:13:38.936Z,15.10
2023-04-11T10:16:09.637Z,14.90
2023-04-11T10:19:08.173Z,14.60
2023-04-11T10:21:41.134Z,14.60
2023-04-11T10:24:11.879Z,14.60
2023-04-11T10:26:52.266Z,14.70
2023-04-11T10:29:51.541Z,14.70
2023-04-11T10:32:30.015Z,14.60
2023-04-11T10:35:29.550Z,14.30
2023-04-11T10:37:58.452Z,14.20
2023-04-11T10:40:27.388Z,14.40
2023-04-11T10:42:57.599Z,14.50
2023-04-11T10:45:27.934Z,14.50
2023-04-11T10:48:12.893Z,14.60
2023-04-11T10:50:46.629Z,14.60
2023-04-11T10:53:37.750Z,14.60
2023-04-11T10:56:07.336Z,14.50
2023-04-11T10:58:38.785Z,14.30
2023-04-11T11:01:31.564Z,14.20
2023-04-11T11:04:07.078Z,14.20
2023-04-11T11:06:47.413Z,14.40
2023-04-11T11:09:23.412Z,14.70
2023-04-11T11:12:07.661Z,14.90
2023-04-11T11:14:36.788Z,15.20
2023-04-11T11:17:05.890Z,15.30
2023-04-11T11:19:35.679Z,15.50
2023-04-11T11:22:15.338Z,15.40
2023-04-11T11:24:44.322Z,15.70
2023-04-11T11:27:21.144Z,15.80
2023-04-11T11:29:50.311Z,15.70
2023-04-11T11:32:25.081Z,15.70
2023-04-11T11:34:55.568Z,15.60
2023-04-11T11:37:26.139Z,15.70
2023-04-11T11:39:55.200Z,15.40
2023-04-11T11:42:24.299Z,15.40
2023-04-11T11:44:53.117Z,15.40
2023-04-11T11:47:23.753Z,15.30
2023-04-11T11:49:54.254Z,15.40
2023-04-11T11:52:34.828Z,15.50
2023-04-11T11:57:55.293Z,15.60
2023-04-11T12:00:26.124Z,15.70
2023-04-11T12:02:56.717Z,15.70
2023-04-11T12:05:30.796Z,15.90
2023-04-11T12:08:02.905Z,15.90
2023-04-11T12:10:39.942Z,15.70
2023-04-11T12:13:17.088Z,15.60
2023-04-11T12:15:50.474Z,15.70
2023-04-11T12:18:22.626Z,15.70
2023-04-11T12:20:52.228Z,15.70
2023-04-11T12:23:22.927Z,15.80
2023-04-11T12:25:52.513Z,15.80
2023-04-11T12:28:21.572Z,15.90
2023-04-11T12:30:50.322Z,16.20
2023-04-11T12:33:19.136Z,16.30
2023-04-11T12:35:49.094Z,16.00
2023-04-11T12:44:01.568Z,16.40
2023-04-11T12:44:22.819Z,16.20
2023-04-11T12:44:22.931Z,16.40
2023-04-11T12:46:33.516Z,16.30
2023-04-11T12:49:02.476Z,16.20
2023-04-11T12:51:32.560Z,15.90
2023-04-11T12:54:01.987Z,15.90
2023-04-11T12:56:32.589Z,16.00
2023-04-11T12:59:01.748Z,15.90
2023-04-11T13:01:30.667Z,15.90
2023-04-11T13:03:59.737Z,15.70
2023-04-11T13:06:29.612Z,15.70
2023-04-11T13:08:58.602Z,15.70
2023-04-11T13:11:28.110Z,15.80
2023-04-11T13:13:58.536Z,15.80
2023-04-11T13:16:27.420Z,15.80
2023-04-11T13:18:56.660Z,15.70
2023-04-11T13:21:27.030Z,15.90
2023-04-11T13:23:56.348Z,15.90
2023-04-11T13:26:25.181Z,16.20
2023-04-11T13:28:54.961Z,16.40
2023-04-11T13:31:27.946Z,16.40
2023-04-11T13:33:58.562Z,16.50
2023-04-11T13:36:28.183Z,16.50
2023-04-11T13:39:00.431Z,16.40
2023-04-11T13:41:32.652Z,16.60
2023-04-11T13:44:01.663Z,16.80
2023-04-11T13:46:33.422Z,17.00
2023-04-11T13:49:02.301Z,17.00
2023-04-11T13:51:33.037Z,16.80
2023-04-11T13:54:02.018Z,16.80
2023-04-11T13:56:33.298Z,16.80
2023-04-11T13:59:02.140Z,16.70
2023-04-11T14:01:34.915Z,16.70
2023-04-11T14:04:03.952Z,16.60
2023-04-11T14:06:35.261Z,16.70
2023-04-11T14:09:05.479Z,16.60
2023-04-11T14:11:34.678Z,16.70
2023-04-11T14:14:03.800Z,16.70
2023-04-11T14:16:34.179Z,16.70
2023-04-11T14:19:03.136Z,16.30
2023-04-11T14:21:32.483Z,16.30
2023-04-11T14:24:02.322Z,16.30
2023-04-11T14:26:33.757Z,16.50
2023-04-11T14:29:03.250Z,16.50
2023-04-11T14:31:33.531Z,16.50
2023-04-11T14:34:02.468Z,16.60
2023-04-11T14:36:33.317Z,16.50
2023-04-11T14:39:03.715Z,16.40
2023-04-11T14:41:32.586Z,16.30
2023-04-11T14:44:01.746Z,16.30
2023-04-11T14:46:32.822Z,16.20
2023-04-11T14:49:03.818Z,16.20
2023-04-11T14:51:32.705Z,16.20
2023-04-11T14:54:01.899Z,16.20
2023-04-11T14:56:31.020Z,15.80
2023-04-11T14:59:00.436Z,15.60
2023-04-11T15:01:29.431Z,15.90
2023-04-11T15:03:58.567Z,15.90
2023-04-11T15:06:29.367Z,15.90
2023-04-11T15:08:58.494Z,16.00
2023-04-11T15:11:27.494Z,16.10
2023-04-11T15:13:56.959Z,15.90
2023-04-11T15:16:26.399Z,15.90
2023-04-11T15:18:55.245Z,16.10
2023-04-11T15:21:24.484Z,15.90
2023-04-11T15:23:56.316Z,15.90
2023-04-11T15:26:25.784Z,15.90
2023-04-11T15:28:54.501Z,15.80
2023-04-11T15:31:26.634Z,15.70
2023-04-11T15:33:57.368Z,15.70
2023-04-11T15:36:26.532Z,15.70
2023-04-11T15:38:57.642Z,15.80
2023-04-11T15:41:27.358Z,15.90
2023-04-11T15:43:56.676Z,15.90
2023-04-11T15:46:27.279Z,15.70
2023-04-11T15:48:56.131Z,15.60
2023-04-11T15:51:24.963Z,15.60
2023-04-11T15:53:53.968Z,15.50
2023-04-11T15:56:24.138Z,15.60
2023-04-11T15:58:53.049Z,15.70
2023-04-11T16:01:25.197Z,15.80
2023-04-11T16:03:55.867Z,16.00
2023-04-11T16:06:26.001Z,16.00
2023-04-11T16:08:55.570Z,15.90
2023-04-11T16:11:26.631Z,15.80
2023-04-11T16:13:55.628Z,15.80
2023-04-11T16:16:24.803Z,15.70
2023-04-11T16:18:53.790Z,15.60
2023-04-11T16:21:24.870Z,15.40
2023-04-11T16:23:54.391Z,15.10
2023-04-11T16:26:24.048Z,14.90
2023-04-11T16:28:54.363Z,14.80
2023-04-11T16:31:24.875Z,14.60
2023-04-11T16:33:55.229Z,14.50
2023-04-11T16:36:24.838Z,14.50
2023-04-11T16:38:53.780Z,14.50
2023-04-11T16:41:22.684Z,14.40
2023-04-11T16:43:53.137Z,14.40
2023-04-11T16:46:22.393Z,14.20
2023-04-11T16:48:51.391Z,14.20
2023-04-11T16:51:21.560Z,14.20
2023-04-11T16:53:53.222Z,14.00
2023-04-11T16:56:23.494Z,13.90
2023-04-11T16:58:56.105Z,13.80
2023-04-11T17:01:25.262Z,13.90
2023-04-11T17:03:54.506Z,13.80
2023-04-11T17:06:23.493Z,13.90
2023-04-11T17:08:53.043Z,13.60
2023-04-11T17:11:22.362Z,13.60
2023-04-11T17:13:51.560Z,13.70
2023-04-11T17:16:21.976Z,13.80
2023-04-11T17:18:51.339Z,13.70
2023-04-11T17:21:20.583Z,13.60
2023-04-11T17:23:50.667Z,13.60
2023-04-11T17:26:20.274Z,13.40
2023-04-11T17:28:50.108Z,13.50
2023-04-11T17:31:19.836Z,13.60
2023-04-11T17:33:50.142Z,13.70
2023-04-11T17:36:19.163Z,13.60
2023-04-11T17:38:48.441Z,13.70
2023-04-11T17:41:17.498Z,13.60
2023-04-11T17:43:47.022Z,13.80
2023-04-11T17:46:16.159Z,13.90
2023-04-11T17:48:44.995Z,13.90
2023-04-11T17:51:15.468Z,14.10
2023-04-11T17:53:46.849Z,14.10
2023-04-11T17:56:15.658Z,13.90
2023-04-11T17:58:46.804Z,13.80
2023-04-11T18:01:16.096Z,13.60
2023-04-11T18:03:45.154Z,13.70
2023-04-11T18:06:15.623Z,13.70
2023-04-11T18:08:50.646Z,13.70
2023-04-11T18:11:21.042Z,13.70
2023-04-11T18:13:50.620Z,13.70
2023-04-11T18:16:22.369Z,13.70
2023-04-11T18:18:51.252Z,13.50
2023-04-11T18:21:21.577Z,13.40
2023-04-11T18:23:53.551Z,13.40
2023-04-11T18:26:22.377Z,13.40
2023-04-11T18:28:51.308Z,13.20
2023-04-11T18:31:20.387Z,13.30
2023-04-11T18:33:49.279Z,13.20
2023-04-11T18:36:18.343Z,13.20
2023-04-11T18:38:49.342Z,13.20
2023-04-11T18:41:18.824Z,13.10
2023-04-11T18:43:50.544Z,13.20
2023-04-11T18:46:19.495Z,13.10
2023-04-11T18:48:48.420Z,13.20
2023-04-11T18:51:17.233Z,13.20
2023-04-11T18:53:46.043Z,13.10
2023-04-11T18:56:16.393Z,13.10
2023-04-11T18:58:46.619Z,13.10
2023-04-11T19:01:18.987Z,13.10
2023-04-11T19:03:49.148Z,13.10
2023-04-11T19:06:18.129Z,13.00
2023-04-11T19:08:46.967Z,13.10
2023-04-11T19:11:17.224Z,13.00
2023-04-11T19:13:46.049Z,13.10
2023-04-11T19:16:15.169Z,13.00
2023-04-11T19:18:44.092Z,12.90
2023-04-11T19:21:12.946Z,12.90
2023-04-11T19:23:41.818Z,12.80
2023-04-11T19:26:10.836Z,13.00
2023-04-11T19:28:41.357Z,13.00
2023-04-11T19:31:10.598Z,12.90
2023-04-11T19:33:41.115Z,12.80
2023-04-11T19:36:10.246Z,12.70
2023-04-11T19:38:39.646Z,12.80
2023-04-11T19:41:13.028Z,12.70
2023-04-11T19:43:44.302Z,12.70
2023-04-11T19:46:13.406Z,12.70
2023-04-11T19:48:43.075Z,12.80
2023-04-11T19:51:12.748Z,12.70
2023-04-11T19:53:41.748Z,12.60
2023-04-11T19:56:11.099Z,12.40
2023-04-11T19:58:39.890Z,12.40
2023-04-11T20:01:12.787Z,12.30
2023-04-11T20:03:42.527Z,12.40
2023-04-11T20:06:12.606Z,12.40
2023-04-11T20:08:44.180Z,12.50
2023-04-11T20:11:17.515Z,12.50
2023-04-11T20:13:47.154Z,12.50
2023-04-11T20:16:21.395Z,12.50
2023-04-11T20:18:52.379Z,12.50
2023-04-11T20:21:21.551Z,12.50
2023-04-11T20:23:50.479Z,12.30
2023-04-11T20:26:19.248Z,12.30
2023-04-11T20:28:49.758Z,12.10
2023-04-11T20:31:20.276Z,12.00
2023-04-11T20:33:49.094Z,12.00
2023-04-11T20:36:18.266Z,12.00
2023-04-11T20:38:47.099Z,12.00
2023-04-11T20:41:19.060Z,12.10
2023-04-11T20:43:47.984Z,12.00
2023-04-11T20:46:17.982Z,11.90
2023-04-11T20:48:49.917Z,11.80
2023-04-11T20:51:18.805Z,11.50
2023-04-11T20:53:47.622Z,11.50
2023-04-11T20:56:16.496Z,11.50
2023-04-11T20:58:46.491Z,11.50
2023-04-11T21:01:15.612Z,11.50
2023-04-11T21:03:45.131Z,11.50
2023-04-11T21:06:15.991Z,11.40
2023-04-11T21:08:44.797Z,11.30
2023-04-11T21:11:13.645Z,11.40
2023-04-11T21:13:43.449Z,11.20
2023-04-11T21:16:12.344Z,11.20
2023-04-11T21:18:41.150Z,11.20
2023-04-11T21:21:10.672Z,11.10
2023-04-11T21:23:41.122Z,11.00
2023-04-11T21:26:09.868Z,11.00
2023-04-11T21:28:38.741Z,10.70
2023-04-11T21:31:08.080Z,10.60
2023-04-11T21:33:36.979Z,10.60
2023-04-11T21:36:06.726Z,10.70
2023-04-11T21:38:35.684Z,10.70
2023-04-11T21:41:06.457Z,10.80
2023-04-11T21:43:35.363Z,10.90
2023-04-11T21:46:04.400Z,10.90
2023-04-11T21:48:33.456Z,10.90
2023-04-11T21:51:03.718Z,10.70
2023-04-11T21:53:32.918Z,10.70
2023-04-11T21:56:01.721Z,10.60
2023-04-11T21:58:32.292Z,10.60
2023-04-11T22:01:01.720Z,10.60
2023-04-11T22:03:31.363Z,10.50
2023-04-11T22:06:00.508Z,10.30
2023-04-11T22:08:29.599Z,10.40
2023-04-11T22:10:58.453Z,10.50
2023-04-11T22:13:27.442Z,10.50
2023-04-11T22:16:05.018Z,10.40
2023-04-11T22:18:38.321Z,10.30
2023-04-11T22:21:09.383Z,10.30
2023-04-11T22:23:38.173Z,10.30
2023-04-11T22:26:07.681Z,10.30
2023-04-11T22:28:36.594Z,10.40
2023-04-11T22:31:07.658Z,10.40
2023-04-11T22:33:37.328Z,10.50
2023-04-11T22:36:09.803Z,10.50
2023-04-11T22:38:38.641Z,10.50
2023-04-11T22:41:08.034Z,10.50
2023-04-11T22:43:36.725Z,10.50
2023-04-11T22:46:09.030Z,10.50
2023-04-11T22:48:38.779Z,10.50
2023-04-11T22:51:08.448Z,10.40
2023-04-11T22:53:42.341Z,10.20
2023-04-11T22:56:12.266Z,10.10
2023-04-11T22:58:41.310Z,10.00
2023-04-11T23:01:14.684Z,10.00
2023-04-11T23:03:43.758Z,9.90
2023-04-11T23:06:12.964Z,9.90
2023-04-11T23:08:41.754Z,10.10
2023-04-11T23:11:10.750Z,10.10
2023-04-11T23:13:39.504Z,10.20
2023-04-11T23:16:09.751Z,10.20
2023-04-11T23:18:40.192Z,10.10
2023-04-11T23:21:14.511Z,10.00
2023-04-11T23:23:43.395Z,9.90
2023-04-11T23:26:18.835Z,9.90
2023-04-11T23:28:48.220Z,9.90
2023-04-11T23:31:17.695Z,9.80
2023-04-11T23:33:47.907Z,9.90
2023-04-11T23:36:17.118Z,10.00
2023-04-11T23:38:46.362Z,9.80
2023-04-11T23:41:15.840Z,9.80
2023-04-11T23:43:44.949Z,9.80
2023-04-11T23:46:14.523Z,9.80
2023-04-11T23:48:43.360Z,9.90
2023-04-11T23:51:13.690Z,9.90
2023-04-11T23:53:43.862Z,10.00
2023-04-11T23:56:12.782Z,10.10
2023-04-11T23:58:41.749Z,10.20
